Latest Weather Observations for Groote Eylandt Airport

IDD60801

Issued at 4:31 am CST Friday 4 September 2015 (issued every 30 minutes, with the page automatically refreshed every 10 minutes)

About weather observations | Map of weather stations | Latest weather observations for NT | Other Formats
Station Details ID: 014518 Name: GROOTE EYLANDT AIRPORT Lat: -13.97 Lon: 136.46 Height: 13.7 m
Data from the previous 72 hours. | See also: Recent months at Groote Eylandt Airport
Date/Time
CST
Temp
°C
App
Temp
°C
Dew
Point
Rel
Hum
%
Delta-T
°C
Wind Press
QNH
hPa
Press
MSL
hPa
Rain
since 9 am
mm
Dir
 
Spd
km/h
Gust
km/h
Spd
kts
Gust
kts
04/04:30am 19.5 22.8 19.2 98 0.2 CALM 0 0 0 0 1015.8 1015.7 0.0
04/04:20am 19.5 22.7 18.8 96 0.4 CALM 0 0 0 0 1015.8 1015.7 0.0
04/04:00am 19.7 23.0 19.0 96 0.4 CALM 0 0 0 0 1015.7 1015.6 0.0
04/03:30am 20.0 23.3 19.2 95 0.5 CALM 0 0 0 0 1015.6 1015.5 0.0
04/03:00am 20.3 23.8 19.5 95 0.5 CALM 0 0 0 0 1015.6 1015.5 0.0
04/02:31am 21.1 25.0 20.4 96 0.5 CALM 0 0 0 0 1015.5 1015.4 0.0
04/02:30am 21.0 24.9 20.3 96 0.4 CALM 0 0 0 0 1015.6 1015.5 0.0
04/02:17am 20.9 23.6 20.2 96 0.4 ESE 6 7 3 4 1015.7 1015.6 0.0
04/02:00am 21.2 24.0 20.9 98 0.2 SE 7 9 4 5 1015.8 1015.7 0.0
04/01:30am 21.1 23.6 20.3 95 0.5 ESE 7 9 4 5 1015.7 1015.6 0.0
04/01:00am 21.5 25.2 20.7 95 0.5 ESE 2 7 1 4 1016.1 1016.0 0.0
04/12:30am 22.1 25.2 21.1 94 0.7 ESE 6 7 3 4 1016.5 1016.4 0.0
04/12:00am 22.7 25.9 21.3 92 0.9 ESE 6 7 3 4 1016.7 1016.6 0.0
 
Date/Time
CST
Temp
°C
App
Temp
°C
Dew
Point
Rel
Hum
%
Delta-T
°C
Wind Press
QNH
hPa
Press
MSL
hPa
Rain
since 9 am
mm
Dir
 
Spd
km/h
Gust
km/h
Spd
kts
Gust
kts
03/11:30pm 23.3 26.1 21.6 90 1.1 E 9 11 5 6 1016.8 1016.7 0.0
03/11:00pm 23.6 26.4 21.5 88 1.4 ENE 9 13 5 7 1017.1 1017.0 0.0
03/10:30pm 23.8 26.8 21.3 86 1.6 ENE 7 9 4 5 1017.2 1017.1 0.0
03/10:00pm 23.9 27.1 21.2 85 1.8 E 6 9 3 5 1017.3 1017.2 0.0
03/09:30pm 24.3 27.4 21.4 84 1.9 ESE 7 9 4 5 1017.4 1017.3 0.0
03/09:00pm 24.7 27.9 21.6 83 2.1 ESE 7 11 4 6 1017.4 1017.3 0.0
03/08:30pm 25.0 28.1 21.5 81 2.3 ESE 7 13 4 7 1017.2 1017.1 0.0
03/08:00pm 25.3 28.1 21.6 80 2.5 ESE 9 15 5 8 1016.9 1016.8 0.0
03/07:30pm 25.6 28.3 21.3 77 2.8 ESE 9 15 5 8 1016.6 1016.5 0.0
03/07:00pm 26.3 28.2 21.3 74 3.3 E 13 20 7 11 1016.2 1016.1 0.0
03/06:30pm 26.9 28.5 20.7 69 4.1 ESE 13 20 7 11 1015.9 1015.8 0.0
03/06:00pm 28.0 28.5 20.0 61 5.2 ENE 17 22 9 12 1015.4 1015.3 0.0
03/05:30pm 28.6 29.1 20.1 60 5.6 ENE 17 24 9 13 1015.2 1015.1 0.0
03/05:00pm 29.0 29.4 19.9 58 6.0 ENE 17 20 9 11 1015.1 1015.0 0.0
03/04:30pm 28.6 30.8 21.9 67 4.5 SE 13 20 7 11 1014.8 1014.7 0.0
03/04:00pm 28.8 31.5 22.1 67 4.5 SSW 11 19 6 10 1014.6 1014.5 0.0
03/03:30pm 28.5 30.5 22.3 69 4.2 SW 15 24 8 13 1014.6 1014.5 0.0
03/03:00pm 28.1 29.7 22.1 70 4.0 WSW 17 22 9 12 1014.8 1014.7 0.0
03/02:30pm 28.3 30.7 22.3 70 4.1 SW 13 19 7 10 1015.0 1014.9 0.0
03/02:00pm 28.6 30.9 22.1 68 4.4 SW 13 24 7 13 1015.2 1015.1 0.0
03/01:30pm 28.2 30.0 21.2 65 4.7 SW 13 20 7 11 1015.5 1015.4 0.0
03/01:00pm 29.1 31.4 22.1 66 4.7 WSW 13 20 7 11 1015.8 1015.7 0.0
03/12:30pm 28.2 31.1 22.4 71 3.9 WSW 11 17 6 9 1016.1 1016.0 0.0
03/12:00pm 27.7 29.8 21.7 70 4.0 WSW 13 20 7 11 1016.5 1016.4 0.0
03/11:30am 28.1 30.4 22.1 70 4.0 W 13 20 7 11 1016.9 1016.8 0.0
03/11:08am 27.7 30.1 22.2 72 3.7 W 13 20 7 11 1017.2 1017.1 0.0
03/11:00am 27.3 29.7 22.3 74 3.4 W 13 20 7 11 1017.4 1017.3 0.0
03/10:30am 26.8 29.7 22.4 77 3.0 WSW 11 17 6 9 1018.0 1017.9 0.0
03/10:00am 27.1 30.4 22.5 76 3.1 WSW 9 15 5 8 1017.9 1017.8 0.0
03/09:47am 27.0 30.0 22.6 77 3.0 WSW 11 17 6 9 1018.0 1017.9 0.0
03/09:40am 26.5 29.3 22.3 78 2.8 W 11 17 6 9 1017.9 1017.8 0.0
03/09:30am 26.6 29.1 21.8 75 3.2 WNW 11 17 6 9 1017.9 1017.8 0.0
03/09:14am 26.6 29.3 22.2 77 3.0 W 11 17 6 9 1017.8 1017.7 0.0
03/09:00am 26.3 28.9 21.9 77 2.9 W 11 20 6 11 1017.8 1017.7 0.0
03/08:53am 27.0 30.3 22.6 77 3.0 W 9 13 5 7 1017.7 1017.6 0.0
03/08:30am 26.3 30.3 22.8 81 2.4 WSW 6 11 3 6 1017.5 1017.4 0.0
03/08:00am 24.8 28.7 23.0 90 1.2 S 7 15 4 8 1017.3 1017.2 0.0
03/07:57am 24.6 29.0 23.4 93 0.8 S 6 15 3 8 1017.4 1017.3 0.0
03/07:30am 22.9 26.3 22.7 99 0.1 S 9 19 5 10 1017.1 1017.0 0.0
03/07:00am 22.4 26.0 22.4 100 0.0 SSW 7 9 4 5 1016.0 1015.9 0.0
03/06:51am 21.3 24.2 21.1 99 0.1 SW 7 9 4 5 1015.9 1015.8 0.0
03/06:30am 21.4 25.4 21.4 100 0.0 NE 2 7 1 4 1015.3 1015.2 0.0
03/06:00am 21.0 23.6 20.5 97 0.3 E 7 7 4 4 1014.7 1014.6 0.0
03/05:30am 21.4 24.0 20.4 94 0.6 ENE 7 7 4 4 1014.3 1014.2 0.0
03/05:02am 22.4 25.5 22.1 98 0.2 ENE 9 11 5 6 1014.2 1014.1 0.0
03/05:00am 22.5 25.6 22.2 98 0.2 ENE 9 11 5 6 1014.1 1014.0 0.0
03/04:32am 21.6 24.3 20.6 94 0.6 NE 7 7 4 4 1013.9 1013.8 0.0
03/04:30am 21.7 24.6 20.7 94 0.6 NE 6 7 3 4 1013.9 1013.8 0.0
03/04:00am 22.3 25.6 21.8 97 0.3 NNE 7 9 4 5 1013.9 1013.8 0.0
03/03:30am 21.5 25.6 20.7 95 0.5 CALM 0 4 0 2 1014.1 1014.0 0.0
03/03:00am 22.4 26.1 21.4 94 0.7 NNE 4 9 2 5 1014.1 1014.0 0.0
03/02:30am 23.0 26.6 22.0 94 0.7 NE 6 7 3 4 1014.3 1014.2 0.0
03/02:00am 23.4 26.9 21.8 91 1.1 NNE 6 7 3 4 1014.4 1014.3 0.0
03/01:30am 23.7 26.7 22.0 90 1.1 NNE 9 13 5 7 1014.6 1014.5 0.0
03/01:00am 23.7 27.4 22.5 93 0.8 N 7 13 4 7 1014.6 1014.5 0.0
03/12:30am 23.4 26.3 22.4 94 0.7 NE 11 15 6 8 1014.6 1014.5 0.0
03/12:00am 23.2 25.7 22.4 95 0.5 ENE 13 17 7 9 1014.8 1014.7 0.0
 
Date/Time
CST
Temp
°C
App
Temp
°C
Dew
Point
Rel
Hum
%
Delta-T
°C
Wind Press
QNH
hPa
Press
MSL
hPa
Rain
since 9 am
mm
Dir
 
Spd
km/h
Gust
km/h
Spd
kts
Gust
kts
02/11:30pm 22.8 25.1 22.1 96 0.5 ENE 13 17 7 9 1015.1 1015.0 0.0
02/11:00pm 22.8 25.8 22.0 95 0.5 ENE 9 11 5 6 1015.4 1015.3 0.0
02/10:30pm 22.8 26.0 21.6 93 0.8 ENE 7 9 4 5 1015.5 1015.4 0.0
02/10:00pm 23.3 26.5 21.6 90 1.1 E 7 9 4 5 1015.4 1015.3 0.0
02/09:30pm 23.7 26.5 21.6 88 1.4 E 9 11 5 6 1015.3 1015.2 0.0
02/09:00pm 24.1 26.3 21.8 87 1.5 ENE 13 17 7 9 1014.8 1014.7 0.0
02/08:30pm 24.4 26.0 21.5 84 1.9 ENE 15 20 8 11 1014.5 1014.4 0.0
02/08:00pm 24.8 26.0 20.7 78 2.7 ENE 15 19 8 10 1014.3 1014.2 0.0
02/07:30pm 25.7 26.3 18.6 65 4.5 ENE 13 17 7 9 1014.0 1013.9 0.0
02/07:00pm 26.9 26.8 15.9 51 6.7 NE 11 15 6 8 1013.8 1013.7 0.0
02/06:30pm 27.7 29.1 19.5 61 5.3 NE 11 15 6 8 1013.5 1013.4 0.0
02/06:00pm 28.8 29.2 18.9 55 6.4 NNE 15 22 8 12 1013.2 1013.1 0.0
02/05:30pm 30.2 29.9 17.3 46 8.2 NE 15 20 8 11 1012.8 1012.7 0.0
02/05:00pm 30.7 29.2 16.3 42 9.0 NNE 19 28 10 15 1012.6 1012.5 0.0
02/04:30pm 30.9 30.1 17.2 43 8.7 NNE 17 24 9 13 1012.4 1012.3 0.0
02/04:00pm 31.4 29.7 16.2 40 9.5 N 20 32 11 17 1012.4 1012.3 0.0
02/03:30pm 31.3 30.1 19.3 49 7.9 NW 24 33 13 18 1012.2 1012.1 0.0
02/03:00pm 31.5 29.9 19.2 48 8.0 NW 26 33 14 18 1012.3 1012.2 0.0
02/02:30pm 31.3 30.4 19.0 48 8.0 NW 22 30 12 16 1012.7 1012.6 0.0
02/02:00pm 30.4 30.5 20.3 54 6.7 NW 20 26 11 14 1013.4 1013.3 0.0
02/01:30pm 29.3 29.6 19.6 56 6.3 NW 17 24 9 13 1014.2 1014.1 0.0
02/01:00pm 28.7 28.3 19.3 56 6.1 WNW 20 28 11 15 1014.8 1014.7 0.0
02/12:30pm 28.2 29.3 21.2 65 4.7 WNW 17 24 9 13 1015.3 1015.2 0.0
02/12:00pm 27.6 28.2 20.2 64 4.8 WNW 17 24 9 13 1015.9 1015.8 0.0
02/11:30am 28.6 30.0 21.1 64 5.0 WNW 15 24 8 13 1016.4 1016.3 0.0
02/11:00am 27.4 29.1 21.0 68 4.2 WNW 13 20 7 11 1016.8 1016.7 0.0
02/10:30am 26.6 27.9 20.9 71 3.8 WNW 15 20 8 11 1017.2 1017.1 0.0
02/10:00am 26.1 27.1 21.1 74 3.3 WNW 17 24 9 13 1017.4 1017.3 0.0
02/09:31am 25.8 27.1 20.8 74 3.3 WNW 15 20 8 11 1017.2 1017.1 0.0
02/09:30am 25.9 27.3 21.1 75 3.2 WNW 15 20 8 11 1017.2 1017.1 0.0
02/09:00am 25.6 26.9 21.7 79 2.6 WNW 17 24 9 13 1016.9 1016.8 0.0
02/08:41am 25.3 27.3 21.6 80 2.5 NW 13 26 7 14 1016.9 1016.8 0.0
02/08:30am 24.5 27.9 21.6 84 1.9 N 6 9 3 5 1016.6 1016.5 0.0
02/08:00am 21.7 24.7 20.9 95 0.5 E 6 7 3 4 1016.0 1015.9 0.0
02/07:30am 18.1 21.0 18.1 100 0.0 CALM 0 0 0 0 1015.7 1015.6 0.0
02/07:28am 18.0 20.8 18.0 100 0.0 CALM 0 0 0 0 1015.6 1015.5 0.0
02/07:00am 16.1 16.8 16.1 100 0.0 ESE 7 7 4 4 1015.3 1015.2 0.0
02/06:30am 15.8 16.6 15.8 100 0.0 E 6 9 3 5 1014.7 1014.6 0.0
02/06:00am 16.1 17.7 15.9 99 0.1 E 2 9 1 5 1014.4 1014.3 0.0
02/05:30am 15.8 17.4 14.8 94 0.6 CALM 0 6 0 3 1014.0 1013.9 0.0
02/05:25am 15.9 16.7 14.8 93 0.6 E 4 6 2 3 1013.9 1013.8 0.0
02/05:00am 16.3 16.9 15.2 93 0.6 E 6 7 3 4 1013.7 1013.6 0.0
02/04:30am 16.5 17.9 15.5 94 0.6 ESE 2 7 1 4 1013.7 1013.6 0.0
02/04:00am 16.5 18.0 15.7 95 0.5 ESE 2 7 1 4 1013.7 1013.6 0.0
02/03:30am 16.8 17.7 16.0 95 0.5 ESE 6 9 3 5 1013.8 1013.7 0.0
02/03:00am 17.1 18.7 16.0 93 0.6 ESE 2 7 1 4 1013.8 1013.7 0.0
02/02:30am 17.7 19.3 16.9 95 0.5 ESE 4 9 2 5 1013.9 1013.8 0.0
02/02:00am 17.5 18.6 16.7 95 0.5 ESE 6 7 3 4 1013.8 1013.7 0.0
02/01:30am 17.9 19.1 16.8 93 0.7 E 6 7 3 4 1013.8 1013.7 0.0
02/01:00am 18.7 20.8 17.2 91 0.9 WNW 2 6 1 3 1014.0 1013.9 0.0
02/12:30am 18.7 20.3 17.0 90 1.0 E 4 7 2 4 1013.8 1013.7 0.0
02/12:00am 18.8 20.2 17.8 94 0.6 E 7 9 4 5 1013.9 1013.8 0.0
 
Date/Time
CST
Temp
°C
App
Temp
°C
Dew
Point
Rel
Hum
%
Delta-T
°C
Wind Press
QNH
hPa
Press
MSL
hPa
Rain
since 9 am
mm
Dir
 
Spd
km/h
Gust
km/h
Spd
kts
Gust
kts
01/11:30pm 18.7 20.1 17.7 94 0.6 E 7 11 4 6 1013.9 1013.8 0.0
01/11:00pm 18.0 18.9 16.7 92 0.8 E 7 9 4 5 1014.0 1013.9 0.0
01/10:30pm 18.6 21.0 16.9 90 1.0 CALM 0 0 0 0 1014.0 1013.9 0.0
01/10:00pm 19.1 21.5 16.9 87 1.3 CALM 0 0 0 0 1014.0 1013.9 0.0
01/09:30pm 20.5 23.5 18.4 88 1.3 CALM 0 0 0 0 1013.9 1013.8 0.0
01/09:00pm 20.8 23.9 18.7 88 1.3 CALM 0 0 0 0 1013.8 1013.7 0.0
01/08:30pm 22.0 24.5 19.0 83 1.9 E 4 6 2 3 1013.5 1013.4 0.0
01/08:00pm 23.3 26.4 19.5 79 2.4 E 2 9 1 5 1013.3 1013.2 0.0
01/07:30pm 24.3 28.0 20.0 77 2.8 CALM 0 0 0 0 1012.8 1012.7 0.0
01/07:00pm 25.5 29.3 20.1 72 3.5 CALM 0 6 0 3 1012.4 1012.3 0.0
01/06:30pm 26.5 29.0 20.3 68 4.1 W 7 9 4 5 1012.1 1012.0 0.0
01/06:00pm 27.6 30.2 20.4 65 4.7 W 7 9 4 5 1011.9 1011.8 0.0
01/05:30pm 28.7 30.9 20.4 60 5.5 W 9 13 5 7 1011.8 1011.7 0.0
01/05:00pm 28.7 30.0 20.2 60 5.6 WNW 13 19 7 10 1011.7 1011.6 0.0
01/04:30pm 29.4 30.1 19.7 56 6.3 NW 15 20 8 11 1011.7 1011.6 0.0
01/04:00pm 30.2 31.6 20.4 55 6.5 WNW 13 19 7 10 1011.7 1011.6 0.0
01/03:30pm 30.3 32.2 20.5 55 6.5 W 11 19 6 10 1011.8 1011.7 0.0
01/03:00pm 30.0 31.2 20.0 55 6.6 W 13 20 7 11 1012.1 1012.0 0.0
01/02:30pm 30.4 32.2 20.3 54 6.7 WSW 11 17 6 9 1012.2 1012.1 0.0
01/02:00pm 29.6 30.5 19.3 54 6.7 WSW 13 20 7 11 1012.5 1012.4 0.0
01/01:30pm 29.2 30.7 20.6 59 5.7 SW 13 20 7 11 1012.9 1012.8 0.0
01/01:00pm 29.2 30.5 20.9 61 5.5 WSW 15 24 8 13 1013.4 1013.3 0.0
01/12:30pm 28.5 29.8 20.2 60 5.5 SW 13 20 7 11 1013.7 1013.6 0.0
01/12:00pm 28.4 28.9 20.1 60 5.4 W 17 26 9 14 1014.1 1014.0 0.0
01/11:30am 28.8 29.0 19.4 56 6.1 W 17 22 9 12 1014.4 1014.3 0.0
01/11:00am 27.6 28.7 19.7 62 5.1 WSW 13 20 7 11 1014.7 1014.6 0.0
01/10:30am 28.6 29.8 19.8 59 5.7 WSW 13 19 7 10 1015.1 1015.0 0.0
01/10:00am 29.3 30.9 17.8 50 7.3 E 6 15 3 8 1015.3 1015.2 0.0
01/09:30am 28.3 29.4 16.6 49 7.3 SE 6 9 3 5 1015.4 1015.3 0.0
01/09:00am 27.0 30.1 18.6 60 5.4 CALM 0 6 0 3 1015.4 1015.4 0.0
01/08:30am 25.6 29.0 19.3 68 4.0 CALM 0 0 0 0 1015.3 1015.3 0.0
01/08:00am 23.4 26.8 19.3 78 2.6 CALM 0 2 0 1 1015.0 1015.0 0.0
01/07:30am 19.5 21.1 17.8 90 1.0 SW 6 9 3 5 1014.7 1014.7 0.0
01/07:00am 16.4 18.1 15.1 92 0.8 CALM 0 0 0 0 1014.2 1014.1 0.0
01/06:30am 15.8 15.5 14.3 91 0.9 E 9 9 5 5 1013.8 1013.7 0.0
01/06:00am 15.9 16.1 14.3 90 0.9 ESE 6 7 3 4 1013.4 1013.3 0.0
01/05:30am 16.1 17.2 14.6 91 0.9 ESE 2 6 1 3 1013.1 1013.0 0.0
01/05:00am 16.1 16.3 14.3 89 1.0 SE 6 9 3 5 1012.9 1012.8 0.0

Other Formats:

Comma delimited format used in spreadsheet applications
http://www.bom.gov.au/fwo/IDD60801/IDD60801.94153.axf

JavaScript Object Notation format (JSON) in row-major order
http://www.bom.gov.au/fwo/IDD60801/IDD60801.94153.json